AAY369 KJAX-KIAD
Flight info
| Callsign | AAY369 |
|---|---|
| Flight time | 1h 23m |
| Altitude | 35000 |
| Route | CROSB2 WISPR JROSS Q87 ALWZZ OGRAE BZNGA DORRN CAVLR6 |
| Aircraft | A320/M-SDE3FGHIRWY/LB1 |
Departure
| Time | 2026-05-04 17:23 |
|---|---|
| Airport | Jacksonville International Airport (KJAX) |
Arrival
| Time | 2026-05-04 18:46 |
|---|---|
| Airport | Washington Dulles International Airport (KIAD) |
| Time | Latitude | Longitude | Altitude | Speed | Heading |
|---|---|---|---|---|---|
| 2026-05-04 17:06 | 30.49041 | -81.68683 | 35 ft | 0 kts | 120° |
| 2026-05-04 17:14 | 30.49048 | -81.68697 | 35 ft | 4 kts | 116° |
| 2026-05-04 17:14 | 30.49059 | -81.68747 | 35 ft | 4 kts | 59° |
| 2026-05-04 17:15 | 30.49039 | -81.68765 | 35 ft | 4 kts | 22° |
| 2026-05-04 17:15 | 30.49028 | -81.68770 | 35 ft | 0 kts | 26° |
| 2026-05-04 17:17 | 30.49052 | -81.68828 | 35 ft | 8 kts | 247° |
| 2026-05-04 17:18 | 30.49058 | -81.68907 | 35 ft | 12 kts | 296° |
| 2026-05-04 17:18 | 30.49047 | -81.69136 | 35 ft | 15 kts | 227° |
| 2026-05-04 17:19 | 30.48928 | -81.69308 | 35 ft | 12 kts | 232° |
| 2026-05-04 17:19 | 30.48967 | -81.69456 | 33 ft | 15 kts | 311° |
| 2026-05-04 17:20 | 30.49211 | -81.69785 | 35 ft | 32 kts | 310° |
| 2026-05-04 17:20 | 30.49407 | -81.69926 | 35 ft | 8 kts | 5° |
| 2026-05-04 17:20 | 30.49458 | -81.69922 | 33 ft | 7 kts | 359° |
| 2026-05-04 17:21 | 30.49596 | -81.69968 | 34 ft | 10 kts | 346° |
| 2026-05-04 17:21 | 30.49762 | -81.69536 | 37 ft | 86 kts | 70° |
| 2026-05-04 17:22 | 30.50031 | -81.68656 | 37 ft | 143 kts | 70° |
| 2026-05-04 17:22 | 30.50393 | -81.67455 | 396 ft | 159 kts | 73° |
| 2026-05-04 17:23 | 30.52454 | -81.64407 | 2136 ft | 202 kts | 20° |
| 2026-05-04 17:23 | 30.53882 | -81.63882 | 2476 ft | 228 kts | 19° |
| 2026-05-04 17:23 | 30.57142 | -81.62614 | 3660 ft | 261 kts | 19° |
| 2026-05-04 17:24 | 30.58902 | -81.61956 | 4579 ft | 264 kts | 19° |
| 2026-05-04 17:24 | 30.64225 | -81.59898 | 7245 ft | 275 kts | 19° |
| 2026-05-04 17:25 | 30.66050 | -81.59175 | 8084 ft | 279 kts | 19° |
| 2026-05-04 17:25 | 30.69772 | -81.57678 | 9735 ft | 286 kts | 19° |
| 2026-05-04 17:26 | 30.73722 | -81.56088 | 10666 ft | 320 kts | 18° |
| 2026-05-04 17:26 | 30.80281 | -81.53449 | 12701 ft | 340 kts | 17° |
| 2026-05-04 17:27 | 30.84799 | -81.51625 | 14113 ft | 347 kts | 17° |
| 2026-05-04 17:27 | 30.89333 | -81.49623 | 15425 ft | 355 kts | 19° |
| 2026-05-04 17:28 | 30.93957 | -81.47467 | 16676 ft | 359 kts | 12° |
| 2026-05-04 17:29 | 31.01359 | -81.45694 | 18490 ft | 366 kts | 7° |
| 2026-05-04 17:29 | 31.08982 | -81.44004 | 20119 ft | 376 kts | 6° |
| 2026-05-04 17:30 | 31.16784 | -81.42238 | 21614 ft | 388 kts | 6° |
| 2026-05-04 17:31 | 31.22132 | -81.41029 | 22542 ft | 394 kts | 6° |
| 2026-05-04 17:31 | 31.30316 | -81.39189 | 23854 ft | 404 kts | 6° |
| 2026-05-04 17:32 | 31.35880 | -81.37926 | 24679 ft | 410 kts | 6° |
| 2026-05-04 17:33 | 31.44366 | -81.35995 | 25880 ft | 418 kts | 5° |
| 2026-05-04 17:33 | 31.47228 | -81.35344 | 26255 ft | 420 kts | 5° |
| 2026-05-04 17:34 | 31.55878 | -81.33380 | 27358 ft | 427 kts | 5° |
| 2026-05-04 17:34 | 31.58815 | -81.32712 | 27724 ft | 430 kts | 5° |
| 2026-05-04 17:35 | 31.67698 | -81.30686 | 28737 ft | 436 kts | 4° |
| 2026-05-04 17:35 | 31.73697 | -81.29317 | 29372 ft | 441 kts | 4° |
| 2026-05-04 17:35 | 31.76718 | -81.28624 | 29692 ft | 443 kts | 4° |
| 2026-05-04 17:36 | 31.79749 | -81.27929 | 29999 ft | 445 kts | 4° |
| 2026-05-04 17:36 | 31.82760 | -81.27239 | 30282 ft | 447 kts | 4° |
| 2026-05-04 17:36 | 31.85824 | -81.26540 | 30567 ft | 449 kts | 4° |
| 2026-05-04 17:36 | 31.88903 | -81.25838 | 30864 ft | 451 kts | 4° |
| 2026-05-04 17:37 | 31.90948 | -81.25370 | 31051 ft | 451 kts | 4° |
| 2026-05-04 17:37 | 31.94039 | -81.24659 | 31308 ft | 453 kts | 4° |
| 2026-05-04 17:37 | 31.97138 | -81.23945 | 31581 ft | 455 kts | 4° |
| 2026-05-04 17:37 | 32.00248 | -81.23175 | 31834 ft | 460 kts | 8° |
| 2026-05-04 17:38 | 32.03295 | -81.21900 | 32101 ft | 470 kts | 18° |
| 2026-05-04 17:38 | 32.06180 | -81.20000 | 32452 ft | 477 kts | 28° |
| 2026-05-04 17:38 | 32.08863 | -81.17674 | 32807 ft | 478 kts | 31° |
| 2026-05-04 17:38 | 32.11528 | -81.15327 | 33156 ft | 477 kts | 31° |
| 2026-05-04 17:39 | 32.16848 | -81.10662 | 33810 ft | 475 kts | 30° |
| 2026-05-04 17:39 | 32.19463 | -81.08373 | 34147 ft | 474 kts | 31° |
| 2026-05-04 17:39 | 32.22110 | -81.06054 | 34469 ft | 473 kts | 30° |
| 2026-05-04 17:40 | 32.24751 | -81.03741 | 34745 ft | 473 kts | 30° |
| 2026-05-04 17:40 | 32.27393 | -81.01423 | 35007 ft | 473 kts | 30° |
| 2026-05-04 17:40 | 32.30035 | -80.99095 | 35120 ft | 472 kts | 30° |
| 2026-05-04 17:40 | 32.32650 | -80.96784 | 35151 ft | 471 kts | 30° |
| 2026-05-04 17:41 | 32.37964 | -80.92110 | 35147 ft | 478 kts | 30° |
| 2026-05-04 17:41 | 32.43305 | -80.87408 | 35146 ft | 479 kts | 30° |
| 2026-05-04 17:42 | 32.48652 | -80.82677 | 35146 ft | 480 kts | 31° |
| 2026-05-04 17:42 | 32.54003 | -80.77929 | 35146 ft | 480 kts | 31° |
| 2026-05-04 17:43 | 32.59352 | -80.73184 | 35143 ft | 480 kts | 31° |
| 2026-05-04 17:43 | 32.64675 | -80.68459 | 35148 ft | 481 kts | 31° |
| 2026-05-04 17:44 | 32.70029 | -80.63705 | 35150 ft | 479 kts | 29° |
| 2026-05-04 17:44 | 32.75791 | -80.59955 | 35153 ft | 470 kts | 20° |
| 2026-05-04 17:45 | 32.81655 | -80.56490 | 35147 ft | 470 kts | 20° |
| 2026-05-04 17:45 | 32.87507 | -80.53009 | 35147 ft | 470 kts | 20° |
| 2026-05-04 17:46 | 32.93350 | -80.49516 | 35146 ft | 470 kts | 20° |
| 2026-05-04 17:46 | 32.99150 | -80.46053 | 35140 ft | 469 kts | 20° |
| 2026-05-04 17:47 | 33.04996 | -80.42570 | 35138 ft | 469 kts | 20° |
| 2026-05-04 17:47 | 33.10826 | -80.39086 | 35137 ft | 468 kts | 20° |
| 2026-05-04 17:48 | 33.16657 | -80.35591 | 35128 ft | 468 kts | 20° |
| 2026-05-04 17:48 | 33.22472 | -80.32100 | 35125 ft | 468 kts | 20° |
| 2026-05-04 17:49 | 33.28292 | -80.28603 | 35125 ft | 468 kts | 20° |
| 2026-05-04 17:49 | 33.34107 | -80.25106 | 35127 ft | 467 kts | 20° |
| 2026-05-04 17:50 | 33.39884 | -80.21630 | 35125 ft | 468 kts | 20° |
| 2026-05-04 17:50 | 33.45701 | -80.18119 | 35130 ft | 468 kts | 20° |
| 2026-05-04 17:51 | 33.51509 | -80.14603 | 35133 ft | 467 kts | 20° |
| 2026-05-04 17:51 | 33.57310 | -80.11089 | 35132 ft | 467 kts | 20° |
| 2026-05-04 17:52 | 33.63117 | -80.07580 | 35134 ft | 467 kts | 20° |
| 2026-05-04 17:52 | 33.68917 | -80.04068 | 35138 ft | 467 kts | 20° |
| 2026-05-04 17:53 | 33.74703 | -80.00538 | 35134 ft | 466 kts | 20° |
| 2026-05-04 17:53 | 33.80493 | -79.97002 | 35132 ft | 466 kts | 20° |
| 2026-05-04 17:54 | 33.86277 | -79.93478 | 35126 ft | 466 kts | 20° |
| 2026-05-04 17:54 | 33.92055 | -79.89964 | 35123 ft | 465 kts | 20° |
| 2026-05-04 17:55 | 33.97836 | -79.86433 | 35124 ft | 466 kts | 20° |
| 2026-05-04 17:55 | 34.03598 | -79.82997 | 35121 ft | 463 kts | 18° |
| 2026-05-04 17:56 | 34.09496 | -79.79891 | 35120 ft | 461 kts | 15° |
| 2026-05-04 17:56 | 34.15414 | -79.76883 | 35118 ft | 461 kts | 15° |
| 2026-05-04 17:57 | 34.21325 | -79.73851 | 35119 ft | 461 kts | 15° |
| 2026-05-04 17:57 | 34.27244 | -79.70809 | 35120 ft | 462 kts | 16° |
| 2026-05-04 17:58 | 34.33137 | -79.67685 | 35117 ft | 462 kts | 16° |
| 2026-05-04 17:58 | 34.39028 | -79.64539 | 35117 ft | 463 kts | 17° |
| 2026-05-04 17:59 | 34.44885 | -79.61409 | 35115 ft | 463 kts | 16° |
| 2026-05-04 18:00 | 34.53724 | -79.56685 | 35111 ft | 463 kts | 16° |
| 2026-05-04 18:00 | 34.59623 | -79.53522 | 35105 ft | 463 kts | 16° |
| 2026-05-04 18:01 | 34.65523 | -79.50351 | 35109 ft | 464 kts | 16° |
| 2026-05-04 18:01 | 34.71425 | -79.47172 | 35111 ft | 464 kts | 16° |
| 2026-05-04 18:02 | 34.80290 | -79.42387 | 35112 ft | 464 kts | 16° |
| 2026-05-04 18:02 | 34.86204 | -79.39200 | 35117 ft | 464 kts | 16° |
| 2026-05-04 18:03 | 34.92076 | -79.36021 | 35116 ft | 465 kts | 16° |
| 2026-05-04 18:03 | 34.97986 | -79.32822 | 35107 ft | 465 kts | 16° |
| 2026-05-04 18:04 | 35.03896 | -79.29616 | 35095 ft | 464 kts | 16° |
| 2026-05-04 18:05 | 35.12745 | -79.24793 | 35082 ft | 464 kts | 16° |
| 2026-05-04 18:05 | 35.18651 | -79.21571 | 35069 ft | 465 kts | 17° |
| 2026-05-04 18:06 | 35.27573 | -79.16705 | 35045 ft | 469 kts | 17° |
| 2026-05-04 18:06 | 35.33503 | -79.13456 | 35048 ft | 470 kts | 17° |
| 2026-05-04 18:07 | 35.39480 | -79.10181 | 35052 ft | 470 kts | 17° |
| 2026-05-04 18:07 | 35.45451 | -79.06902 | 35055 ft | 470 kts | 17° |
| 2026-05-04 18:08 | 35.51451 | -79.03613 | 34789 ft | 472 kts | 17° |
| 2026-05-04 18:08 | 35.54449 | -79.01960 | 34415 ft | 471 kts | 17° |
| 2026-05-04 18:08 | 35.57440 | -79.00306 | 34041 ft | 471 kts | 17° |
| 2026-05-04 18:09 | 35.63427 | -78.96989 | 33294 ft | 472 kts | 17° |
| 2026-05-04 18:09 | 35.69384 | -78.93706 | 32549 ft | 472 kts | 17° |
| 2026-05-04 18:10 | 35.72387 | -78.92052 | 32174 ft | 474 kts | 17° |
| 2026-05-04 18:10 | 35.75400 | -78.90388 | 31802 ft | 475 kts | 17° |
| 2026-05-04 18:10 | 35.78414 | -78.88721 | 31435 ft | 476 kts | 17° |
| 2026-05-04 18:10 | 35.81445 | -78.87039 | 31051 ft | 477 kts | 17° |
| 2026-05-04 18:11 | 35.84469 | -78.85358 | 30675 ft | 478 kts | 17° |
| 2026-05-04 18:11 | 35.87503 | -78.83675 | 30300 ft | 479 kts | 17° |
| 2026-05-04 18:11 | 35.90548 | -78.81985 | 29924 ft | 479 kts | 17° |
| 2026-05-04 18:11 | 35.93596 | -78.80289 | 29543 ft | 481 kts | 17° |
| 2026-05-04 18:12 | 35.96643 | -78.78591 | 29179 ft | 481 kts | 17° |
| 2026-05-04 18:12 | 35.99688 | -78.76889 | 29032 ft | 480 kts | 18° |
| 2026-05-04 18:12 | 36.05763 | -78.73486 | 29075 ft | 478 kts | 17° |
| 2026-05-04 18:13 | 36.11812 | -78.70101 | 29072 ft | 477 kts | 17° |
| 2026-05-04 18:14 | 36.20884 | -78.65036 | 29062 ft | 477 kts | 17° |
| 2026-05-04 18:14 | 36.26924 | -78.61645 | 29063 ft | 477 kts | 17° |
| 2026-05-04 18:15 | 36.39002 | -78.54840 | 29047 ft | 476 kts | 17° |
| 2026-05-04 18:16 | 36.45020 | -78.51440 | 29040 ft | 475 kts | 17° |
| 2026-05-04 18:16 | 36.51045 | -78.48034 | 29043 ft | 475 kts | 17° |
| 2026-05-04 18:17 | 36.60043 | -78.42944 | 29048 ft | 476 kts | 17° |
| 2026-05-04 18:18 | 36.69076 | -78.37804 | 29056 ft | 475 kts | 17° |
| 2026-05-04 18:18 | 36.75089 | -78.34386 | 29062 ft | 474 kts | 17° |
| 2026-05-04 18:19 | 36.84100 | -78.29255 | 29066 ft | 474 kts | 17° |
| 2026-05-04 18:19 | 36.90052 | -78.25844 | 29069 ft | 473 kts | 18° |
| 2026-05-04 18:20 | 36.96029 | -78.22416 | 29071 ft | 472 kts | 18° |
| 2026-05-04 18:20 | 37.01989 | -78.18991 | 29075 ft | 470 kts | 18° |
| 2026-05-04 18:21 | 37.07930 | -78.15582 | 29067 ft | 469 kts | 18° |
| 2026-05-04 18:21 | 37.12861 | -78.12748 | 29051 ft | 468 kts | 18° |
| 2026-05-04 18:22 | 37.15819 | -78.11042 | 28675 ft | 467 kts | 18° |
| 2026-05-04 18:22 | 37.18758 | -78.09343 | 28420 ft | 464 kts | 18° |
| 2026-05-04 18:22 | 37.21695 | -78.07649 | 28177 ft | 465 kts | 18° |
| 2026-05-04 18:22 | 37.24639 | -78.05955 | 27932 ft | 465 kts | 18° |
| 2026-05-04 18:23 | 37.27579 | -78.04259 | 27677 ft | 465 kts | 19° |
| 2026-05-04 18:23 | 37.30520 | -78.02554 | 27426 ft | 465 kts | 19° |
| 2026-05-04 18:23 | 37.33457 | -78.00850 | 27180 ft | 465 kts | 19° |
| 2026-05-04 18:23 | 37.36392 | -77.99146 | 26930 ft | 465 kts | 19° |
| 2026-05-04 18:24 | 37.39328 | -77.97441 | 26678 ft | 464 kts | 19° |
| 2026-05-04 18:24 | 37.42263 | -77.95736 | 26368 ft | 464 kts | 19° |
| 2026-05-04 18:24 | 37.45190 | -77.94033 | 25827 ft | 464 kts | 20° |
| 2026-05-04 18:24 | 37.48123 | -77.92329 | 25284 ft | 463 kts | 20° |
| 2026-05-04 18:25 | 37.51038 | -77.90634 | 24737 ft | 460 kts | 20° |
| 2026-05-04 18:25 | 37.53926 | -77.88948 | 24195 ft | 455 kts | 20° |
| 2026-05-04 18:25 | 37.56799 | -77.87294 | 23652 ft | 451 kts | 20° |
| 2026-05-04 18:25 | 37.59646 | -77.85677 | 23102 ft | 448 kts | 20° |
| 2026-05-04 18:26 | 37.62480 | -77.84076 | 22551 ft | 444 kts | 20° |
| 2026-05-04 18:26 | 37.65261 | -77.82507 | 22022 ft | 441 kts | 20° |
| 2026-05-04 18:26 | 37.68061 | -77.80939 | 21433 ft | 438 kts | 20° |
| 2026-05-04 18:26 | 37.70844 | -77.79401 | 20850 ft | 435 kts | 19° |
| 2026-05-04 18:27 | 37.73611 | -77.77879 | 20270 ft | 432 kts | 19° |
| 2026-05-04 18:27 | 37.76364 | -77.76362 | 19692 ft | 429 kts | 19° |
| 2026-05-04 18:27 | 37.79097 | -77.74849 | 19124 ft | 427 kts | 20° |
| 2026-05-04 18:27 | 37.81803 | -77.73344 | 18547 ft | 424 kts | 20° |
| 2026-05-04 18:28 | 37.84497 | -77.71845 | 17980 ft | 421 kts | 20° |
| 2026-05-04 18:28 | 37.87169 | -77.70358 | 17456 ft | 419 kts | 20° |
| 2026-05-04 18:28 | 37.89831 | -77.68875 | 16901 ft | 416 kts | 20° |
| 2026-05-04 18:28 | 37.92473 | -77.67399 | 16353 ft | 413 kts | 20° |
| 2026-05-04 18:29 | 37.95054 | -77.65955 | 15818 ft | 410 kts | 20° |
| 2026-05-04 18:29 | 37.97657 | -77.64495 | 15259 ft | 407 kts | 20° |
| 2026-05-04 18:29 | 38.00237 | -77.63046 | 14716 ft | 404 kts | 20° |
| 2026-05-04 18:29 | 38.02801 | -77.61608 | 14187 ft | 402 kts | 20° |
| 2026-05-04 18:30 | 38.07859 | -77.58703 | 13105 ft | 396 kts | 21° |
| 2026-05-04 18:30 | 38.10328 | -77.57162 | 12575 ft | 394 kts | 22° |
| 2026-05-04 18:30 | 38.12762 | -77.55592 | 12051 ft | 390 kts | 23° |
| 2026-05-04 18:31 | 38.15171 | -77.54022 | 11556 ft | 382 kts | 23° |
| 2026-05-04 18:31 | 38.17453 | -77.52522 | 11195 ft | 356 kts | 23° |
| 2026-05-04 18:31 | 38.19597 | -77.51119 | 10710 ft | 339 kts | 23° |
| 2026-05-04 18:31 | 38.21671 | -77.49781 | 10114 ft | 328 kts | 23° |
| 2026-05-04 18:32 | 38.23653 | -77.48536 | 9870 ft | 307 kts | 19° |
| 2026-05-04 18:32 | 38.25643 | -77.47748 | 9680 ft | 297 kts | 11° |
| 2026-05-04 18:32 | 38.27648 | -77.47058 | 9565 ft | 299 kts | 12° |
| 2026-05-04 18:32 | 38.29648 | -77.46355 | 9359 ft | 298 kts | 12° |
| 2026-05-04 18:33 | 38.31646 | -77.45648 | 9140 ft | 298 kts | 12° |
| 2026-05-04 18:33 | 38.33637 | -77.44946 | 8890 ft | 297 kts | 12° |
| 2026-05-04 18:33 | 38.35604 | -77.44251 | 8665 ft | 296 kts | 12° |
| 2026-05-04 18:33 | 38.37593 | -77.43545 | 8436 ft | 296 kts | 12° |
| 2026-05-04 18:34 | 38.39574 | -77.42843 | 8203 ft | 295 kts | 12° |
| 2026-05-04 18:34 | 38.41549 | -77.42143 | 7985 ft | 293 kts | 13° |
| 2026-05-04 18:34 | 38.43516 | -77.41446 | 7756 ft | 293 kts | 12° |
| 2026-05-04 18:34 | 38.45475 | -77.40751 | 7534 ft | 292 kts | 13° |
| 2026-05-04 18:35 | 38.47426 | -77.40059 | 7313 ft | 290 kts | 12° |
| 2026-05-04 18:35 | 38.49379 | -77.39366 | 7074 ft | 290 kts | 13° |
| 2026-05-04 18:35 | 38.51324 | -77.38688 | 6863 ft | 289 kts | 12° |
| 2026-05-04 18:35 | 38.53268 | -77.38060 | 6636 ft | 288 kts | 11° |
| 2026-05-04 18:36 | 38.55186 | -77.37460 | 6424 ft | 287 kts | 11° |
| 2026-05-04 18:36 | 38.57123 | -77.36860 | 6192 ft | 286 kts | 11° |
| 2026-05-04 18:36 | 38.59070 | -77.36383 | 5967 ft | 283 kts | 1° |
| 2026-05-04 18:36 | 38.61027 | -77.36306 | 5768 ft | 281 kts | 358° |
| 2026-05-04 18:37 | 38.62980 | -77.36245 | 5570 ft | 280 kts | 358° |
| 2026-05-04 18:37 | 38.64928 | -77.36175 | 5289 ft | 279 kts | 359° |
| 2026-05-04 18:37 | 38.66866 | -77.36100 | 4890 ft | 278 kts | 359° |
| 2026-05-04 18:37 | 38.68802 | -77.36026 | 4555 ft | 277 kts | 359° |
| 2026-05-04 18:38 | 38.70724 | -77.35956 | 4116 ft | 275 kts | 359° |
| 2026-05-04 18:38 | 38.72642 | -77.35887 | 3693 ft | 275 kts | 359° |
| 2026-05-04 18:38 | 38.74550 | -77.35818 | 3274 ft | 274 kts | 359° |
| 2026-05-04 18:38 | 38.76424 | -77.35749 | 3025 ft | 272 kts | 359° |
| 2026-05-04 18:39 | 38.78326 | -77.35678 | 3018 ft | 275 kts | 359° |
| 2026-05-04 18:39 | 38.80206 | -77.35606 | 3007 ft | 263 kts | 359° |
| 2026-05-04 18:39 | 38.81974 | -77.35537 | 3005 ft | 246 kts | 359° |
| 2026-05-04 18:39 | 38.83637 | -77.35472 | 2999 ft | 233 kts | 359° |
| 2026-05-04 18:40 | 38.85248 | -77.35415 | 2758 ft | 232 kts | 359° |
| 2026-05-04 18:40 | 38.86865 | -77.35365 | 2547 ft | 232 kts | 360° |
| 2026-05-04 18:40 | 38.88503 | -77.35310 | 2249 ft | 233 kts | 0° |
| 2026-05-04 18:40 | 38.90124 | -77.35254 | 2056 ft | 234 kts | 1° |
| 2026-05-04 18:41 | 38.91728 | -77.35194 | 1993 ft | 232 kts | 1° |
| 2026-05-04 18:41 | 38.93348 | -77.35133 | 2000 ft | 232 kts | 1° |
| 2026-05-04 18:41 | 38.94968 | -77.35074 | 2009 ft | 233 kts | 0° |
| 2026-05-04 18:41 | 38.96586 | -77.35015 | 1995 ft | 231 kts | 1° |
| 2026-05-04 18:42 | 38.98190 | -77.34956 | 2012 ft | 233 kts | 2° |
| 2026-05-04 18:42 | 38.99809 | -77.34895 | 2011 ft | 232 kts | 1° |
| 2026-05-04 18:42 | 39.01419 | -77.34974 | 2004 ft | 228 kts | 345° |
| 2026-05-04 18:42 | 39.02800 | -77.35815 | 1901 ft | 216 kts | 317° |
| 2026-05-04 18:43 | 39.03705 | -77.37284 | 1782 ft | 207 kts | 291° |
| 2026-05-04 18:43 | 39.04034 | -77.39020 | 1679 ft | 193 kts | 267° |
| 2026-05-04 18:43 | 39.03876 | -77.40706 | 1560 ft | 188 kts | 256° |
| 2026-05-04 18:43 | 39.03655 | -77.42353 | 1467 ft | 182 kts | 252° |
| 2026-05-04 18:44 | 39.03186 | -77.43786 | 1375 ft | 169 kts | 233° |
| 2026-05-04 18:44 | 39.02716 | -77.44543 | 1306 ft | 157 kts | 221° |
| 2026-05-04 18:44 | 39.01585 | -77.45532 | 1134 ft | 140 kts | 200° |
| 2026-05-04 18:44 | 39.00686 | -77.45850 | 991 ft | 132 kts | 186° |
| 2026-05-04 18:45 | 38.99788 | -77.45894 | 829 ft | 126 kts | 179° |
| 2026-05-04 18:45 | 38.98926 | -77.45905 | 680 ft | 123 kts | 178° |
| 2026-05-04 18:45 | 38.98074 | -77.45910 | 502 ft | 123 kts | 178° |
| 2026-05-04 18:45 | 38.97222 | -77.45930 | 367 ft | 122 kts | 182° |
| 2026-05-04 18:46 | 38.96398 | -77.45943 | 288 ft | 107 kts | 180° |
| 2026-05-04 18:46 | 38.95836 | -77.45952 | 290 ft | 42 kts | 180° |
| 2026-05-04 18:46 | 38.95610 | -77.45951 | 291 ft | 22 kts | 177° |
| 2026-05-04 18:46 | 38.95484 | -77.45910 | 291 ft | 17 kts | 154° |
| 2026-05-04 18:47 | 38.95388 | -77.45840 | 292 ft | 14 kts | 149° |
| 2026-05-04 18:47 | 38.95310 | -77.45780 | 292 ft | 12 kts | 151° |
| 2026-05-04 18:47 | 38.95228 | -77.45733 | 292 ft | 14 kts | 161° |
| 2026-05-04 18:47 | 38.95124 | -77.45714 | 296 ft | 16 kts | 177° |
| 2026-05-04 18:48 | 38.95014 | -77.45721 | 296 ft | 16 kts | 182° |
| 2026-05-04 18:48 | 38.94898 | -77.45720 | 292 ft | 18 kts | 179° |
| 2026-05-04 18:48 | 38.94779 | -77.45718 | 292 ft | 13 kts | 172° |
| 2026-05-04 18:48 | 38.94761 | -77.45633 | 292 ft | 10 kts | 98° |
| 2026-05-04 18:49 | 38.94740 | -77.45558 | 292 ft | 8 kts | 109° |
| 2026-05-04 18:49 | 38.94734 | -77.45491 | 294 ft | 7 kts | 89° |
| 2026-05-04 18:49 | 38.94736 | -77.45425 | 294 ft | 10 kts | 87° |
| 2026-05-04 18:49 | 38.94740 | -77.45313 | 293 ft | 15 kts | 87° |
| 2026-05-04 18:50 | 38.94795 | -77.45254 | 294 ft | 6 kts | 14° |
| 2026-05-04 18:50 | 38.94819 | -77.45247 | 292 ft | 1 kts | 13° |
| 2026-05-04 18:50 | 38.94820 | -77.45246 | 296 ft | 0 kts | 13° |